Time;durP1;ratioP1;P1;durP2;ratioP2;P2;SDS_P1;SDS_P2;PMS_P1;PMS_P2;Temp;Humidity;BMP_temperature;BMP_pressure;BME280_temperature;BME280_humidity;BME280_pressure;Samples;Min_cycle;Max_cycle;Signal;HPM_P1;HPM_P2
2023/12/24 00:02:13;;;;;;;0.55;0.55;;;;;;;5.19;65.79;99072.34;4448943;32;33729;-82
2023/12/24 00:04:42;;;;;;;0.00;0.00;;;;;;;4.91;66.38;99076.78;4460511;32;33851;-82
2023/12/24 00:07:09;;;;;;;0.00;0.00;;;;;;;5.02;66.35;99085.13;4443819;32;33099;-82
2023/12/24 00:09:37;;;;;;;0.00;0.00;;;;;;;5.09;66.14;99078.81;4443607;32;33778;-81
2023/12/24 00:12:06;;;;;;;0.00;0.00;;;;;;;4.93;66.80;99078.44;4447898;32;34073;-81
2023/12/24 00:14:33;;;;;;;0.00;0.00;;;;;;;5.04;66.66;99078.97;4458166;32;33493;-82
2023/12/24 00:17:02;;;;;;;0.00;0.00;;;;;;;4.99;66.92;99085.25;4446040;32;31929;-83
2023/12/24 00:19:30;;;;;;;0.00;0.00;;;;;;;4.93;66.91;99091.50;4420013;32;34395;-82
2023/12/24 00:21:58;;;;;;;0.20;0.20;;;;;;;4.78;67.97;99102.47;4456984;32;34078;-82
2023/12/24 00:24:25;;;;;;;0.00;0.00;;;;;;;4.58;67.92;99097.88;4439083;32;33649;-82
2023/12/24 00:26:53;;;;;;;0.00;0.00;;;;;;;4.65;68.29;99112.44;4461847;32;33824;-82
2023/12/24 00:29:21;;;;;;;0.00;0.00;;;;;;;4.61;68.73;99097.78;4445548;32;32454;-81
2023/12/24 00:31:49;;;;;;;0.30;0.30;;;;;;;4.69;67.80;99094.91;4435584;32;33044;-81
2023/12/24 00:34:17;;;;;;;0.00;0.00;;;;;;;4.52;67.84;99100.66;4464021;32;32666;-82
2023/12/24 00:36:45;;;;;;;0.32;0.32;;;;;;;4.41;68.75;99102.72;4447899;32;33109;-81
2023/12/24 00:39:12;;;;;;;0.40;0.40;;;;;;;4.87;67.09;99096.94;4437029;32;33104;-82
2023/12/24 00:41:40;;;;;;;0.00;0.00;;;;;;;4.87;66.68;99112.66;4459085;32;33720;-82
2023/12/24 00:44:08;;;;;;;0.00;0.00;;;;;;;4.74;67.90;99101.69;4448900;32;32697;-82
2023/12/24 00:46:36;;;;;;;0.00;0.00;;;;;;;4.66;67.45;99106.34;4447606;32;33877;-82
2023/12/24 00:49:04;;;;;;;0.00;0.00;;;;;;;4.80;67.48;99104.16;4448737;32;34526;-81
2023/12/24 00:51:32;;;;;;;0.00;0.00;;;;;;;5.13;66.25;99119.69;4450406;32;32182;-82
2023/12/24 00:54:01;;;;;;;0.10;0.10;;;;;;;4.95;66.16;99133.34;4435654;32;32638;-82
2023/12/24 00:56:29;;;;;;;0.00;0.00;;;;;;;4.86;67.31;99131.87;4436388;32;32163;-82
2023/12/24 00:58:56;;;;;;;0.00;0.00;;;;;;;4.75;67.93;99139.19;4459828;32;33690;-82
2023/12/24 01:01:24;;;;;;;0.00;0.00;;;;;;;4.64;67.83;99147.34;4436004;32;33908;-82
2023/12/24 01:03:52;;;;;;;0.00;0.00;;;;;;;4.68;68.14;99151.59;4462066;32;32757;-82
2023/12/24 01:06:20;;;;;;;0.00;0.00;;;;;;;4.82;67.71;99148.56;4459863;32;33810;-82
2023/12/24 01:08:47;;;;;;;0.00;0.00;;;;;;;4.87;67.00;99149.25;4438746;32;33630;-83
2023/12/24 01:11:15;;;;;;;0.00;0.00;;;;;;;4.75;68.03;99158.38;4437950;32;33015;-83
2023/12/24 01:13:43;;;;;;;0.03;0.03;;;;;;;4.92;66.70;99147.37;4435329;32;32766;-83
2023/12/24 01:16:11;;;;;;;0.05;0.05;;;;;;;4.84;68.25;99138.88;4440737;32;33299;-83
2023/12/24 01:18:39;;;;;;;0.00;0.00;;;;;;;5.23;66.61;99149.03;4460190;32;33867;-83
2023/12/24 01:21:06;;;;;;;0.00;0.00;;;;;;;5.35;65.66;99135.50;4451745;32;33528;-83
2023/12/24 01:23:34;;;;;;;0.00;0.00;;;;;;;5.21;66.33;99133.34;4448843;32;33027;-83
2023/12/24 01:26:03;;;;;;;0.00;0.00;;;;;;;5.18;66.78;99143.94;4462223;32;33337;-83
2023/12/24 01:28:30;;;;;;;0.00;0.00;;;;;;;5.28;65.82;99145.34;4444899;32;33426;-83
2023/12/24 01:30:58;;;;;;;0.00;0.00;;;;;;;5.18;66.76;99149.16;4447022;32;32185;-83
2023/12/24 01:33:26;;;;;;;0.00;0.00;;;;;;;4.98;66.96;99136.69;4450002;32;33421;-83
2023/12/24 01:35:53;;;;;;;0.00;0.00;;;;;;;5.27;66.35;99148.00;4464453;32;33070;-83
2023/12/24 01:38:21;;;;;;;0.30;0.30;;;;;;;5.45;65.64;99141.31;4447597;32;34205;-83
2023/12/24 01:40:50;;;;;;;0.30;0.30;;;;;;;5.32;66.04;99152.19;4462220;32;31778;-82
2023/12/24 01:43:17;;;;;;;0.00;0.00;;;;;;;5.73;64.54;99142.06;4460437;32;34414;-82
2023/12/24 01:45:45;;;;;;;0.00;0.00;;;;;;;5.22;66.58;99145.56;4460913;32;33600;-82
2023/12/24 01:48:15;;;;;;;0.00;0.00;;;;;;;5.01;66.92;99156.69;4449892;32;34979;-83
2023/12/24 01:50:45;;;;;;;0.00;0.00;;;;;;;5.46;65.79;99153.47;4447497;32;33966;-82
2023/12/24 01:53:15;;;;;;;0.00;0.00;;;;;;;5.12;66.28;99151.97;4453699;32;34747;-82
2023/12/24 01:55:44;;;;;;;0.00;0.00;;;;;;;5.21;66.71;99149.06;4448606;32;32952;-82
2023/12/24 01:58:11;;;;;;;0.00;0.00;;;;;;;5.38;65.83;99148.50;4448239;32;33101;-82
2023/12/24 02:00:40;;;;;;;0.00;0.00;;;;;;;5.22;66.15;99147.28;4461306;32;34660;-82
2023/12/24 02:03:09;;;;;;;0.00;0.00;;;;;;;5.29;66.05;99152.28;4440328;32;33030;-82
2023/12/24 02:05:36;;;;;;;0.00;0.00;;;;;;;5.33;66.27;99143.44;4450705;32;33155;-80
2023/12/24 02:08:06;;;;;;;0.00;0.00;;;;;;;5.32;66.50;99143.50;4456152;32;34274;-80
2023/12/24 02:10:35;;;;;;;0.00;0.00;;;;;;;5.20;67.08;99142.09;4462855;32;33575;-80
2023/12/24 02:13:03;;;;;;;0.00;0.00;;;;;;;5.19;66.19;99137.78;4445994;32;33061;-80
2023/12/24 02:15:31;;;;;;;0.00;0.00;;;;;;;5.13;67.03;99145.84;4444208;32;33500;-80
2023/12/24 02:17:59;;;;;;;0.00;0.00;;;;;;;5.21;66.92;99148.19;4448422;32;33872;-80
2023/12/24 02:20:27;;;;;;;0.00;0.00;;;;;;;5.30;66.39;99150.53;4448134;32;33624;-80
2023/12/24 02:22:55;;;;;;;0.00;0.00;;;;;;;5.36;66.38;99159.03;4457792;32;34389;-81
2023/12/24 02:25:23;;;;;;;0.00;0.00;;;;;;;5.25;66.77;99155.91;4458975;32;32958;-80
2023/12/24 02:28:14;;;;;;;0.00;0.00;;;;;;;5.36;66.26;99152.94;4433151;32;32669;-81
2023/12/24 02:30:45;;;;;;;0.00;0.00;;;;;;;5.38;66.38;99164.22;4445283;32;33253;-81
2023/12/24 02:33:13;;;;;;;0.00;0.00;;;;;;;5.38;65.82;99164.22;4461621;32;33739;-81
2023/12/24 02:35:42;;;;;;;0.00;0.00;;;;;;;5.51;65.77;99156.81;4473561;32;32916;-81
2023/12/24 02:38:10;;;;;;;0.10;0.10;;;;;;;5.48;66.05;99156.91;4458540;32;33684;-81
2023/12/24 02:40:38;;;;;;;0.00;0.00;;;;;;;5.34;65.87;99165.22;4471943;32;31498;-81
2023/12/24 02:43:05;;;;;;;0.00;0.00;;;;;;;5.30;66.10;99161.00;4446566;32;33680;-82
2023/12/24 02:45:33;;;;;;;0.80;0.62;;;;;;;5.39;66.16;99161.53;4458901;32;33679;-82
2023/12/24 02:48:01;;;;;;;0.08;0.08;;;;;;;5.45;65.75;99149.16;4434081;32;33131;-82
2023/12/24 02:50:30;;;;;;;0.00;0.00;;;;;;;5.36;66.45;99161.66;4445946;32;33706;-82
2023/12/24 02:52:57;;;;;;;0.00;0.00;;;;;;;5.45;66.07;99159.62;4448333;32;34080;-82
2023/12/24 02:55:25;;;;;;;0.00;0.00;;;;;;;5.71;65.03;99167.47;4447666;32;33505;-82
2023/12/24 02:57:53;;;;;;;0.00;0.00;;;;;;;5.51;64.77;99162.06;4461534;32;33343;-82
2023/12/24 03:00:20;;;;;;;0.05;0.05;;;;;;;5.22;66.11;99166.50;4446558;32;34383;-82
2023/12/24 03:02:48;;;;;;;0.00;0.00;;;;;;;5.55;65.24;99163.66;4437954;32;32849;-83
2023/12/24 03:05:16;;;;;;;0.00;0.00;;;;;;;5.48;65.53;99159.53;4449592;32;32318;-82
2023/12/24 03:07:44;;;;;;;0.00;0.00;;;;;;;5.37;65.69;99160.75;4439973;32;33113;-82
2023/12/24 03:10:12;;;;;;;0.00;0.00;;;;;;;5.28;66.94;99155.81;4457685;32;33602;-82
2023/12/24 03:12:39;;;;;;;0.00;0.00;;;;;;;5.39;66.82;99158.94;4454101;32;32685;-82
2023/12/24 03:15:08;;;;;;;0.70;0.32;;;;;;;5.58;65.36;99143.47;4445168;32;32153;-82
2023/12/24 03:17:35;;;;;;;0.20;0.20;;;;;;;5.54;65.64;99147.09;4457544;32;34698;-82
2023/12/24 03:20:04;;;;;;;0.00;0.00;;;;;;;5.31;66.72;99149.59;4437844;32;32987;-83
2023/12/24 03:22:33;;;;;;;0.00;0.00;;;;;;;5.30;66.67;99161.00;4436082;32;33207;-82
2023/12/24 03:25:01;;;;;;;0.00;0.00;;;;;;;5.46;66.02;99154.37;4457572;32;33410;-82
2023/12/24 03:27:29;;;;;;;0.00;0.00;;;;;;;5.46;66.11;99149.13;4447116;32;33051;-82
2023/12/24 03:29:56;;;;;;;0.08;0.08;;;;;;;5.60;65.71;99161.72;4460190;32;33606;-83
2023/12/24 03:32:24;;;;;;;0.00;0.00;;;;;;;5.40;66.26;99150.16;4435394;32;32737;-83
2023/12/24 03:34:52;;;;;;;1.65;0.43;;;;;;;5.51;65.94;99151.59;4450102;32;32983;-83
2023/12/24 03:37:19;;;;;;;0.00;0.00;;;;;;;5.43;66.24;99148.37;4434851;32;32864;-81
2023/12/24 03:39:47;;;;;;;0.00;0.00;;;;;;;5.52;65.80;99148.91;4445891;32;33061;-81
2023/12/24 03:42:15;;;;;;;0.00;0.00;;;;;;;5.54;66.03;99157.56;4454535;32;32569;-81
2023/12/24 03:44:43;;;;;;;0.00;0.00;;;;;;;5.56;65.85;99149.66;4446119;32;33197;-81
2023/12/24 03:47:12;;;;;;;0.20;0.20;;;;;;;5.46;65.98;99162.22;4431910;32;33706;-81
2023/12/24 03:49:40;;;;;;;0.00;0.00;;;;;;;5.69;64.98;99156.19;4446435;32;34229;-81
2023/12/24 03:52:08;;;;;;;0.35;0.35;;;;;;;5.50;65.58;99160.31;4452372;32;32575;-81
2023/12/24 03:54:36;;;;;;;0.00;0.00;;;;;;;5.69;64.95;99161.41;4451400;32;33668;-81
2023/12/24 03:57:03;;;;;;;0.00;0.00;;;;;;;6.07;64.31;99161.88;4457630;32;33173;-81
2023/12/24 03:59:31;;;;;;;0.00;0.00;;;;;;;5.65;65.43;99165.06;4460133;32;34262;-81
2023/12/24 04:01:59;;;;;;;0.00;0.00;;;;;;;5.41;65.58;99171.97;4445087;32;33834;-81
2023/12/24 04:04:27;;;;;;;0.00;0.00;;;;;;;5.50;65.74;99155.09;4436248;32;31814;-82
2023/12/24 04:06:54;;;;;;;0.25;0.25;;;;;;;5.64;64.96;99158.09;4457180;32;33565;-82
2023/12/24 04:09:22;;;;;;;0.00;0.00;;;;;;;5.52;65.40;99166.38;4459500;32;34194;-81
2023/12/24 04:11:53;;;;;;;0.00;0.00;;;;;;;5.51;65.67;99146.34;4446700;32;33790;-82
2023/12/24 04:14:20;;;;;;;0.00;0.00;;;;;;;5.79;65.20;99157.59;4448504;32;33054;-81
2023/12/24 04:16:48;;;;;;;0.00;0.00;;;;;;;5.92;64.77;99151.94;4460762;32;33213;-81
2023/12/24 04:19:16;;;;;;;0.05;0.05;;;;;;;5.62;65.10;99144.22;4443358;32;32642;-81
2023/12/24 04:21:44;;;;;;;0.00;0.00;;;;;;;5.58;65.98;99147.84;4436216;32;32578;-81
2023/12/24 04:24:12;;;;;;;0.00;0.00;;;;;;;5.89;64.58;99145.88;4457112;32;31792;-81
2023/12/24 04:26:40;;;;;;;0.00;0.00;;;;;;;5.65;65.87;99144.12;4445225;32;33829;-81
2023/12/24 04:29:07;;;;;;;0.00;0.00;;;;;;;5.48;65.53;99146.44;4446723;32;33705;-81
2023/12/24 04:31:39;;;;;;;0.00;0.00;;;;;;;5.26;66.39;99147.13;4432659;32;32438;-81
2023/12/24 04:34:07;;;;;;;0.37;0.37;;;;;;;5.03;67.21;99139.16;4444127;32;32938;-81
2023/12/24 04:36:36;;;;;;;0.05;0.05;;;;;;;5.62;66.26;99128.50;4431813;32;33726;-81
2023/12/24 04:39:03;;;;;;;0.00;0.00;;;;;;;5.27;67.19;99135.78;4444517;32;32887;-81
2023/12/24 04:41:31;;;;;;;0.00;0.00;;;;;;;5.55;66.68;99127.00;4455848;32;33547;-83
2023/12/24 04:44:04;;;;;;;0.00;0.00;;;;;;;5.27;66.77;99143.62;4446290;32;33646;-81
2023/12/24 04:46:32;;;;;;;0.10;0.10;;;;;;;5.35;67.04;99138.13;4445048;32;32666;-81
2023/12/24 04:48:59;;;;;;;0.00;0.00;;;;;;;5.29;66.83;99127.88;4436985;32;33832;-81
2023/12/24 04:51:27;;;;;;;0.00;0.00;;;;;;;5.50;66.90;99121.06;4446088;32;34345;-81
2023/12/24 04:53:55;;;;;;;0.57;0.57;;;;;;;5.39;66.81;99116.19;4448191;32;32819;-82
2023/12/24 04:56:23;;;;;;;0.10;0.10;;;;;;;5.32;67.16;99127.78;4446362;32;34666;-81
2023/12/24 04:58:51;;;;;;;0.00;0.00;;;;;;;5.36;67.10;99125.00;4443444;32;33472;-82
2023/12/24 05:01:20;;;;;;;0.00;0.00;;;;;;;5.58;66.30;99124.28;4444631;32;33689;-82
2023/12/24 05:03:48;;;;;;;0.00;0.00;;;;;;;5.58;66.03;99121.66;4460951;32;33400;-81
2023/12/24 05:06:15;;;;;;;0.00;0.00;;;;;;;5.52;65.93;99127.97;4433057;32;33272;-82
2023/12/24 05:08:43;;;;;;;0.00;0.00;;;;;;;5.56;66.13;99120.88;4447173;32;33035;-81
2023/12/24 05:11:11;;;;;;;0.22;0.22;;;;;;;5.57;66.11;99125.19;4449244;32;33681;-81
2023/12/24 05:13:39;;;;;;;0.43;0.22;;;;;;;5.39;66.34;99135.38;4438069;32;34185;-81
2023/12/24 05:16:08;;;;;;;0.20;0.20;;;;;;;5.37;66.84;99134.56;4458496;32;32723;-80
2023/12/24 05:18:36;;;;;;;0.00;0.00;;;;;;;5.44;66.49;99135.22;4458771;32;33940;-81
2023/12/24 05:21:04;;;;;;;0.00;0.00;;;;;;;5.47;66.51;99129.88;4447415;32;34488;-82
2023/12/24 05:23:32;;;;;;;0.57;0.47;;;;;;;5.40;66.15;99129.22;4437023;32;32712;-82
2023/12/24 05:26:00;;;;;;;0.30;0.30;;;;;;;5.38;66.29;99144.12;4462207;32;34132;-82
2023/12/24 05:28:27;;;;;;;0.10;0.10;;;;;;;5.45;66.41;99141.31;4448212;32;34019;-81
2023/12/24 05:30:55;;;;;;;0.00;0.00;;;;;;;5.44;66.67;99134.38;4443138;32;32779;-82
2023/12/24 05:33:23;;;;;;;0.50;0.50;;;;;;;5.51;65.99;99148.97;4447375;32;33550;-82
2023/12/24 05:35:56;;;;;;;0.90;0.90;;;;;;;5.53;66.23;99147.16;4448221;32;33939;-82
2023/12/24 05:38:23;;;;;;;1.80;1.12;;;;;;;5.56;66.18;99149.66;4446648;32;33720;-82
2023/12/24 05:40:51;;;;;;;0.70;0.70;;;;;;;5.56;65.88;99150.53;4436627;32;33691;-82
2023/12/24 05:43:19;;;;;;;0.10;0.10;;;;;;;5.56;66.24;99144.44;4458617;32;32648;-81
2023/12/24 05:45:46;;;;;;;0.03;0.03;;;;;;;5.52;66.17;99145.44;4435081;32;33088;-81
2023/12/24 05:48:14;;;;;;;0.35;0.35;;;;;;;5.50;66.19;99152.47;4461063;32;33915;-81
2023/12/24 05:50:42;;;;;;;0.00;0.00;;;;;;;5.61;66.06;99142.50;4436914;32;32884;-81
2023/12/24 05:53:10;;;;;;;0.37;0.37;;;;;;;5.43;66.07;99143.12;4447637;32;33138;-81
2023/12/24 05:55:37;;;;;;;1.60;0.60;;;;;;;5.48;66.63;99147.31;4450312;32;32611;-81
2023/12/24 05:58:05;;;;;;;0.65;0.65;;;;;;;5.57;65.91;99146.13;4461743;32;33626;-81
2023/12/24 06:00:34;;;;;;;0.30;0.30;;;;;;;5.59;66.03;99155.63;4447455;32;33430;-81
2023/12/24 06:03:04;;;;;;;0.00;0.00;;;;;;;5.63;65.90;99149.41;4446503;32;32276;-81
2023/12/24 06:05:31;;;;;;;0.90;0.90;;;;;;;5.67;65.59;99162.41;4448661;32;33210;-81
2023/12/24 06:07:59;;;;;;;0.00;0.00;;;;;;;5.57;66.40;99164.47;4446130;32;32927;-81
2023/12/24 06:10:27;;;;;;;0.00;0.00;;;;;;;5.60;66.23;99161.72;4458331;32;33737;-82
2023/12/24 06:12:54;;;;;;;0.20;0.20;;;;;;;5.64;66.25;99166.81;4449691;32;33107;-82
2023/12/24 06:15:22;;;;;;;0.00;0.00;;;;;;;5.73;65.81;99157.78;4447741;32;33690;-83
2023/12/24 06:17:50;;;;;;;0.60;0.60;;;;;;;5.60;65.55;99161.72;4433753;32;33357;-82
2023/12/24 06:20:18;;;;;;;0.13;0.13;;;;;;;5.70;66.40;99162.28;4461023;32;33926;-83
2023/12/24 06:22:46;;;;;;;0.73;0.73;;;;;;;5.68;65.98;99164.09;4466534;32;33357;-82
2023/12/24 06:25:15;;;;;;;0.90;0.90;;;;;;;5.76;65.98;99172.56;4459648;32;33078;-82
2023/12/24 06:27:42;;;;;;;0.80;0.60;;;;;;;5.73;66.19;99162.19;4471008;32;33721;-83
2023/12/24 06:30:11;;;;;;;0.00;0.00;;;;;;;5.82;65.76;99173.19;4446509;32;33698;-82
2023/12/24 06:32:41;;;;;;;7.03;0.80;;;;;;;5.83;65.43;99182.75;4435267;32;32905;-82
2023/12/24 06:35:09;;;;;;;0.57;0.57;;;;;;;5.66;66.15;99179.88;4443665;32;34772;-82
2023/12/24 06:37:37;;;;;;;0.35;0.35;;;;;;;5.57;66.66;99185.41;4449837;32;33483;-82
2023/12/24 06:40:06;;;;;;;0.03;0.03;;;;;;;5.56;66.35;99181.09;4447513;32;33976;-82
2023/12/24 06:42:34;;;;;;;0.08;0.08;;;;;;;5.56;66.39;99181.94;4453161;32;34035;-82
2023/12/24 06:45:01;;;;;;;0.37;0.37;;;;;;;5.54;66.55;99185.50;4434392;32;33371;-82
2023/12/24 06:47:30;;;;;;;1.17;0.88;;;;;;;5.68;66.42;99185.91;4456824;32;33750;-82
2023/12/24 06:49:58;;;;;;;0.75;0.75;;;;;;;5.60;66.49;99193.16;4459871;32;33029;-82
2023/12/24 06:52:26;;;;;;;0.80;0.80;;;;;;;5.61;66.48;99200.13;4458049;32;32837;-82
2023/12/24 06:54:54;;;;;;;1.42;1.08;;;;;;;5.65;66.36;99202.59;4460304;32;33790;-82
2023/12/24 06:57:22;;;;;;;1.10;0.85;;;;;;;5.64;66.44;99200.00;4434518;32;34308;-82
2023/12/24 06:59:50;;;;;;;3.00;1.42;;;;;;;5.74;66.47;99196.16;4436788;32;32402;-82
2023/12/24 07:02:18;;;;;;;0.57;0.57;;;;;;;5.68;66.49;99199.00;4462744;32;31323;-82
2023/12/24 07:04:45;;;;;;;2.40;0.60;;;;;;;5.62;66.72;99200.06;4446690;32;34571;-82
2023/12/24 07:07:13;;;;;;;0.85;0.85;;;;;;;5.39;67.41;99189.50;4435798;32;33146;-82
2023/12/24 07:09:41;;;;;;;0.52;0.52;;;;;;;5.44;67.29;99197.19;4464076;32;33707;-82
2023/12/24 07:12:09;;;;;;;5.78;1.35;;;;;;;5.67;66.55;99191.22;4459204;32;32938;-83
2023/12/24 07:14:38;;;;;;;1.23;1.12;;;;;;;5.88;65.04;99204.41;4463007;32;33945;-82
2023/12/24 07:17:06;;;;;;;0.47;0.47;;;;;;;5.67;66.48;99205.16;4426078;32;36366;-82
2023/12/24 07:19:33;;;;;;;0.80;0.80;;;;;;;5.56;67.05;99207.28;4462994;32;33884;-82
2023/12/24 07:22:02;;;;;;;0.52;0.15;;;;;;;5.60;66.60;99219.34;4438581;32;33307;-82
2023/12/24 07:24:30;;;;;;;0.80;0.80;;;;;;;5.50;66.85;99213.56;4451233;32;33049;-82
2023/12/24 07:26:57;;;;;;;0.00;0.00;;;;;;;5.56;67.45;99223.00;4448519;32;33015;-82
2023/12/24 07:29:25;;;;;;;0.80;0.80;;;;;;;5.74;66.87;99221.50;4434429;32;33035;-82
2023/12/24 07:31:53;;;;;;;1.30;1.23;;;;;;;5.64;67.49;99231.44;4446648;32;33039;-81
2023/12/24 07:34:20;;;;;;;0.17;0.17;;;;;;;5.64;66.69;99234.06;4437558;32;34178;-81
2023/12/24 07:36:49;;;;;;;3.10;0.88;;;;;;;5.50;67.72;99225.78;4434929;32;32435;-81
2023/12/24 07:39:17;;;;;;;0.17;0.17;;;;;;;5.55;67.57;99224.72;4453967;32;32940;-81
2023/12/24 07:41:44;;;;;;;1.70;1.60;;;;;;;5.73;67.02;99227.66;4449372;32;32356;-80
2023/12/24 07:44:12;;;;;;;2.50;1.73;;;;;;;5.70;67.65;99241.75;4448898;32;33228;-81
2023/12/24 07:46:40;;;;;;;0.35;0.35;;;;;;;5.75;67.18;99244.22;4459766;32;33935;-82
2023/12/24 07:49:07;;;;;;;1.83;1.73;;;;;;;5.63;67.41;99250.69;4463040;32;34198;-82
2023/12/24 07:51:35;;;;;;;1.12;1.12;;;;;;;5.71;67.76;99247.84;4436335;32;33719;-82
2023/12/24 07:54:03;;;;;;;0.82;0.73;;;;;;;5.51;67.77;99248.47;4447959;32;34393;-82
2023/12/24 07:56:31;;;;;;;0.52;0.45;;;;;;;5.26;69.19;99254.47;4447084;32;33850;-82
2023/12/24 07:58:58;;;;;;;0.10;0.10;;;;;;;5.29;70.90;99257.00;4455959;32;33634;-83
2023/12/24 08:01:28;;;;;;;0.00;0.00;;;;;;;6.02;69.37;99258.16;4449910;32;32901;-83
2023/12/24 08:03:55;;;;;;;0.20;0.20;;;;;;;6.17;70.53;99255.00;4449399;32;33668;-83
2023/12/24 08:06:23;;;;;;;1.58;1.48;;;;;;;6.34;69.46;99259.69;4448216;32;33911;-83
2023/12/24 08:08:57;;;;;;;0.73;0.73;;;;;;;6.36;70.81;99263.97;4461947;32;33827;-83
2023/12/24 08:11:24;;;;;;;0.52;0.52;;;;;;;6.54;70.34;99261.59;4446993;32;32782;-83
2023/12/24 08:13:54;;;;;;;0.10;0.10;;;;;;;6.88;69.16;99256.84;4433271;32;31663;-84
2023/12/24 08:16:22;;;;;;;0.00;0.00;;;;;;;6.86;68.90;99263.91;4447726;32;32720;-84
2023/12/24 08:18:49;;;;;;;0.47;0.40;;;;;;;6.77;68.99;99269.50;4434869;32;32723;-84
2023/12/24 08:21:17;;;;;;;0.88;0.85;;;;;;;6.46;69.45;99268.87;4465117;32;33556;-84
2023/12/24 08:23:45;;;;;;;0.10;0.10;;;;;;;6.41;69.74;99272.53;4439255;32;33318;-83
2023/12/24 08:26:12;;;;;;;0.68;0.68;;;;;;;6.50;69.79;99273.09;4446689;32;33161;-83
2023/12/24 08:28:41;;;;;;;3.40;2.83;;;;;;;6.88;68.51;99290.09;4448016;32;34104;-83
2023/12/24 08:31:10;;;;;;;1.27;1.27;;;;;;;7.23;67.77;99283.53;4457571;32;31156;-83
2023/12/24 08:33:38;;;;;;;2.08;1.90;;;;;;;7.17;67.15;99289.03;4435316;32;33243;-84
2023/12/24 08:36:10;;;;;;;1.85;1.58;;;;;;;6.74;68.45;99280.12;4445426;32;33330;-83
2023/12/24 08:38:38;;;;;;;0.65;0.65;;;;;;;6.68;68.75;99285.56;4446429;32;33568;-83
2023/12/24 08:41:06;;;;;;;1.90;1.62;;;;;;;6.66;70.09;99290.03;4455094;32;31934;-84
2023/12/24 08:43:34;;;;;;;1.85;1.75;;;;;;;6.70;68.80;99289.00;4432009;32;32826;-82
2023/12/24 08:46:03;;;;;;;0.30;0.30;;;;;;;6.87;68.98;99304.97;4462968;32;34344;-82
2023/12/24 08:48:33;;;;;;;1.50;1.40;;;;;;;7.11;67.34;99303.22;4434600;32;33011;-83
2023/12/24 08:51:01;;;;;;;0.50;0.50;;;;;;;7.19;67.56;99305.56;4435837;32;33400;-82
2023/12/24 08:53:29;;;;;;;1.30;1.30;;;;;;;6.89;67.85;99313.66;4453674;32;30948;-82
2023/12/24 08:55:57;;;;;;;0.22;0.22;;;;;;;6.63;68.63;99322.44;4460604;32;33883;-81
2023/12/24 08:58:25;;;;;;;0.00;0.00;;;;;;;6.88;68.12;99314.59;4446734;32;33004;-82
2023/12/24 09:00:53;;;;;;;4.28;2.92;;;;;;;6.56;69.78;99323.59;4447879;32;31299;-82
2023/12/24 09:03:21;;;;;;;0.30;0.30;;;;;;;6.74;69.97;99322.09;4448627;32;33765;-82
2023/12/24 09:05:49;;;;;;;2.20;2.00;;;;;;;7.44;66.98;99308.94;4454702;32;33751;-82
2023/12/24 09:08:17;;;;;;;0.45;0.45;;;;;;;7.08;68.33;99318.25;4451246;32;32784;-83
2023/12/24 09:10:44;;;;;;;0.98;0.60;;;;;;;6.83;69.28;99323.50;4462885;32;33460;-82
2023/12/24 09:13:12;;;;;;;0.52;0.52;;;;;;;6.87;69.78;99310.22;4452434;32;32777;-83
2023/12/24 09:15:40;;;;;;;0.62;0.62;;;;;;;7.05;69.32;99311.31;4449175;32;31957;-82
2023/12/24 09:18:08;;;;;;;1.77;1.65;;;;;;;7.33;68.33;99321.66;4451280;32;31868;-83
2023/12/24 09:20:36;;;;;;;0.45;0.45;;;;;;;7.12;69.56;99314.56;4461007;32;31839;-83
2023/12/24 09:23:05;;;;;;;2.10;1.90;;;;;;;7.36;69.51;99305.78;4462890;32;33853;-85
2023/12/24 09:25:33;;;;;;;1.05;1.05;;;;;;;7.68;68.32;99317.63;4462508;32;33260;-84
2023/12/24 09:28:01;;;;;;;2.37;2.17;;;;;;;7.50;68.45;99315.75;4451178;32;32977;-85
2023/12/24 09:30:28;;;;;;;1.02;1.02;;;;;;;7.55;68.96;99315.53;4448348;32;32226;-82
2023/12/24 09:32:56;;;;;;;0.75;0.75;;;;;;;7.61;69.04;99315.34;4461795;32;33666;-83
2023/12/24 09:35:24;;;;;;;3.08;1.70;;;;;;;7.69;68.62;99313.22;4460950;32;34812;-83
2023/12/24 09:37:52;;;;;;;2.10;1.42;;;;;;;7.82;68.49;99311.84;4443018;32;32981;-83
2023/12/24 09:40:19;;;;;;;1.90;1.80;;;;;;;8.16;67.87;99313.09;4448774;32;33810;-83
2023/12/24 09:42:47;;;;;;;2.60;2.40;;;;;;;8.02;67.77;99315.44;4448047;32;32397;-83
2023/12/24 09:45:15;;;;;;;3.60;1.65;;;;;;;7.96;68.31;99319.16;4460382;32;34134;-83
2023/12/24 09:47:42;;;;;;;2.53;2.33;;;;;;;7.73;69.49;99330.59;4448499;32;33709;-84
2023/12/24 09:50:12;;;;;;;2.40;2.28;;;;;;;7.55;69.54;99326.94;4480655;31;33211;-83
2023/12/24 09:52:40;;;;;;;5.18;2.08;;;;;;;7.73;69.34;99320.09;4437286;32;33037;-83
2023/12/24 09:55:07;;;;;;;1.35;1.12;;;;;;;8.06;68.51;99320.50;4461082;32;34010;-82
2023/12/24 09:57:35;;;;;;;1.67;1.40;;;;;;;8.24;68.17;99328.56;4436732;32;32296;-82
2023/12/24 10:00:08;;;;;;;2.22;2.12;;;;;;;7.92;68.92;99328.09;4435869;32;33043;-83
2023/12/24 10:02:36;;;;;;;1.67;1.58;;;;;;;8.00;68.67;99327.78;4448884;32;33531;-82
2023/12/24 10:05:04;;;;;;;3.45;1.37;;;;;;;7.89;69.52;99326.47;4457623;32;33454;-83
2023/12/24 10:07:39;;;;;;;3.17;2.90;;;;;;;8.03;68.46;99328.53;4446755;32;31493;-82
2023/12/24 10:10:09;;;;;;;5.03;4.62;;;;;;;7.99;69.74;99328.72;4437923;32;34004;-82
2023/12/24 10:12:37;;;;;;;2.72;2.00;;;;;;;8.27;68.44;99320.53;4449891;32;34713;-82
2023/12/24 10:15:05;;;;;;;1.40;1.33;;;;;;;8.39;68.11;99325.31;4464855;32;33939;-83
2023/12/24 10:17:34;;;;;;;18.50;9.30;;;;;;;8.12;69.28;99314.16;4452461;32;32477;-83
2023/12/24 10:20:04;;;;;;;6.07;5.62;;;;;;;8.33;68.14;99299.25;4460278;32;33597;-83
2023/12/24 10:22:33;;;;;;;26.27;14.02;;;;;;;8.09;70.01;99301.13;4461471;32;33859;-82
2023/12/24 10:25:02;;;;;;;27.05;18.10;;;;;;;8.15;69.33;99309.59;4437887;32;33979;-80
2023/12/24 10:27:31;;;;;;;21.17;14.45;;;;;;;8.33;68.59;99294.81;4465475;32;33424;-80
2023/12/24 10:30:12;;;;;;;13.13;10.75;;;;;;;8.44;68.11;99292.63;4461514;32;33211;-80
2023/12/24 10:32:42;;;;;;;4.57;3.97;;;;;;;8.35;68.42;99302.66;4445442;32;34010;-80
2023/12/24 10:35:11;;;;;;;2.17;2.08;;;;;;;8.09;68.91;99299.34;4449094;32;32908;-80
2023/12/24 10:37:39;;;;;;;3.30;2.28;;;;;;;8.04;69.13;99306.56;4451380;32;34678;-81
2023/12/24 10:40:11;;;;;;;3.17;2.97;;;;;;;8.26;68.44;99303.91;4449502;32;32747;-80
2023/12/24 10:42:39;;;;;;;;;;;;;;;8.22;67.93;99310.22;4440368;32;33308;-80
2023/12/24 10:45:08;;;;;;;1.55;1.37;;;;;;;8.24;67.99;99311.00;4459778;32;33906;-85
2023/12/24 10:47:36;;;;;;;1.17;0.80;;;;;;;8.17;69.08;99314.81;4443663;32;33696;-85
2023/12/24 10:50:08;;;;;;;1.35;1.30;;;;;;;8.17;68.81;99307.78;4429449;32;33471;-85
2023/12/24 10:52:35;;;;;;;1.02;1.00;;;;;;;7.96;69.65;99317.38;4455569;32;33929;-85
2023/12/24 10:55:03;;;;;;;1.40;1.23;;;;;;;8.11;68.28;99307.16;4453624;32;33871;-85
2023/12/24 10:57:52;;;;;;;0.10;0.10;;;;;;;8.26;68.54;99309.19;4442860;32;33348;-85
2023/12/24 11:00:21;;;;;;;0.70;0.52;;;;;;;8.32;68.37;99303.66;4442802;32;33154;-85
2023/12/24 11:02:50;;;;;;;1.00;0.93;;;;;;;8.39;67.98;99297.22;4428337;32;33232;-85
2023/12/24 11:05:45;;;;;;;0.43;0.43;;;;;;;8.43;68.26;99287.44;4467239;32;33081;-85
2023/12/24 11:08:31;;;;;;;0.60;0.60;;;;;;;8.32;69.00;99282.59;4469185;32;34408;-85
2023/12/24 11:11:03;;;;;;;0.10;0.10;;;;;;;8.17;69.11;99278.00;4440807;32;32536;-85
2023/12/24 11:16:58;;;;;;;0.32;0.32;;;;;;;8.37;68.57;99275.41;4468937;32;33500;-85
2023/12/24 11:19:26;;;;;;;0.30;0.30;;;;;;;8.42;68.72;99276.06;4455790;32;33670;-86
2023/12/24 11:22:11;;;;;;;0.10;0.10;;;;;;;8.60;68.19;99265.66;4456245;32;33181;-86
2023/12/24 11:24:42;;;;;;;0.88;0.57;;;;;;;8.62;68.10;99264.66;4469267;32;33952;-86
2023/12/24 11:27:14;;;;;;;0.10;0.10;;;;;;;8.65;67.34;99261.91;4466328;32;34401;-86
2023/12/24 11:29:47;;;;;;;0.20;0.20;;;;;;;8.39;68.31;99255.13;4455097;32;33433;-86
2023/12/24 11:32:25;;;;;;;0.00;0.00;;;;;;;8.70;67.61;99251.16;4456605;32;33690;-86
2023/12/24 11:34:58;;;;;;;0.13;0.13;;;;;;;8.87;66.80;99253.87;4462500;32;34715;-86
2023/12/24 11:37:27;;;;;;;7.55;6.40;;;;;;;8.75;66.95;99254.44;4428260;32;33325;-87
2023/12/24 11:40:07;;;;;;;6.82;5.93;;;;;;;8.77;67.27;99247.31;4443205;32;33817;-87
2023/12/24 11:42:46;;;;;;;6.32;5.60;;;;;;;8.96;66.67;99240.28;4455944;32;33452;-87
2023/12/24 11:45:23;;;;;;;6.53;4.80;;;;;;;9.12;66.45;99240.44;4454418;32;33593;-87
2023/12/24 11:48:02;;;;;;;21.30;8.40;;;;;;;9.04;66.74;99247.84;4443032;32;33745;-87
2023/12/24 11:50:33;;;;;;;5.80;5.30;;;;;;;9.06;66.64;99248.63;4468679;32;34438;-87
2023/12/24 11:57:25;;;;;;;0.52;0.52;;;;;;;8.71;68.70;99252.88;4462829;32;35430;-84